sensor_id;sensor_type;location;lat;lon;timestamp;P1;durP1;ratioP1;P2;durP2;ratioP2
757;SDS011;363;48.764;9.172;2024-03-17T00:00:20;5.93;;;4.53;;
757;SDS011;363;48.764;9.172;2024-03-17T00:02:45;4.78;;;4.32;;
757;SDS011;363;48.764;9.172;2024-03-17T00:05:12;9.80;;;4.80;;
757;SDS011;363;48.764;9.172;2024-03-17T00:07:38;5.15;;;4.53;;
757;SDS011;363;48.764;9.172;2024-03-17T00:10:04;6.35;;;4.47;;
757;SDS011;363;48.764;9.172;2024-03-17T00:12:32;6.38;;;4.85;;
757;SDS011;363;48.764;9.172;2024-03-17T00:14:58;6.37;;;4.73;;
757;SDS011;363;48.764;9.172;2024-03-17T00:17:23;5.27;;;4.40;;
757;SDS011;363;48.764;9.172;2024-03-17T00:19:49;4.90;;;4.23;;
757;SDS011;363;48.764;9.172;2024-03-17T00:22:14;5.50;;;4.50;;
757;SDS011;363;48.764;9.172;2024-03-17T00:24:40;5.43;;;4.30;;
757;SDS011;363;48.764;9.172;2024-03-17T00:27:07;6.10;;;4.90;;
757;SDS011;363;48.764;9.172;2024-03-17T00:29:33;5.27;;;4.77;;
757;SDS011;363;48.764;9.172;2024-03-17T00:31:58;5.13;;;4.63;;
757;SDS011;363;48.764;9.172;2024-03-17T00:34:24;5.10;;;4.60;;
757;SDS011;363;48.764;9.172;2024-03-17T00:36:49;5.53;;;5.00;;
757;SDS011;363;48.764;9.172;2024-03-17T00:39:16;5.20;;;4.70;;
757;SDS011;363;48.764;9.172;2024-03-17T00:41:43;7.72;;;5.80;;
757;SDS011;363;48.764;9.172;2024-03-17T00:44:08;7.55;;;5.53;;
757;SDS011;363;48.764;9.172;2024-03-17T00:46:34;11.70;;;8.23;;
757;SDS011;363;48.764;9.172;2024-03-17T00:49:00;9.07;;;5.37;;
757;SDS011;363;48.764;9.172;2024-03-17T00:51:26;5.13;;;4.40;;
757;SDS011;363;48.764;9.172;2024-03-17T00:53:51;5.37;;;4.53;;
757;SDS011;363;48.764;9.172;2024-03-17T00:56:17;4.83;;;4.40;;
757;SDS011;363;48.764;9.172;2024-03-17T00:58:42;7.73;;;6.13;;
757;SDS011;363;48.764;9.172;2024-03-17T01:01:10;6.72;;;5.35;;
757;SDS011;363;48.764;9.172;2024-03-17T01:03:35;5.50;;;5.00;;
757;SDS011;363;48.764;9.172;2024-03-17T01:06:04;5.73;;;4.93;;
757;SDS011;363;48.764;9.172;2024-03-17T01:08:30;6.93;;;5.15;;
757;SDS011;363;48.764;9.172;2024-03-17T01:10:56;6.07;;;4.75;;
757;SDS011;363;48.764;9.172;2024-03-17T01:13:23;6.28;;;5.03;;
757;SDS011;363;48.764;9.172;2024-03-17T01:15:53;6.20;;;5.07;;
757;SDS011;363;48.764;9.172;2024-03-17T01:18:19;7.53;;;5.82;;
757;SDS011;363;48.764;9.172;2024-03-17T01:20:44;6.53;;;5.53;;
757;SDS011;363;48.764;9.172;2024-03-17T01:23:11;5.80;;;5.25;;
757;SDS011;363;48.764;9.172;2024-03-17T01:25:36;6.73;;;5.03;;
757;SDS011;363;48.764;9.172;2024-03-17T01:28:07;7.20;;;5.00;;
757;SDS011;363;48.764;9.172;2024-03-17T01:30:33;6.00;;;4.47;;
757;SDS011;363;48.764;9.172;2024-03-17T01:32:59;6.20;;;4.95;;
757;SDS011;363;48.764;9.172;2024-03-17T01:35:25;6.20;;;5.60;;
757;SDS011;363;48.764;9.172;2024-03-17T01:37:51;7.38;;;4.28;;
757;SDS011;363;48.764;9.172;2024-03-17T01:40:17;5.70;;;4.80;;
757;SDS011;363;48.764;9.172;2024-03-17T01:42:42;4.70;;;3.60;;
757;SDS011;363;48.764;9.172;2024-03-17T01:47:54;6.18;;;4.75;;
757;SDS011;363;48.764;9.172;2024-03-17T01:50:22;5.05;;;3.90;;
757;SDS011;363;48.764;9.172;2024-03-17T01:52:56;4.55;;;4.15;;
757;SDS011;363;48.764;9.172;2024-03-17T01:55:24;6.32;;;4.78;;
757;SDS011;363;48.764;9.172;2024-03-17T01:57:52;7.90;;;4.97;;
757;SDS011;363;48.764;9.172;2024-03-17T02:00:18;6.80;;;4.13;;
757;SDS011;363;48.764;9.172;2024-03-17T02:02:44;5.73;;;4.80;;
757;SDS011;363;48.764;9.172;2024-03-17T02:05:09;4.97;;;4.23;;
757;SDS011;363;48.764;9.172;2024-03-17T02:07:35;6.30;;;4.37;;
757;SDS011;363;48.764;9.172;2024-03-17T02:10:01;5.27;;;4.53;;
757;SDS011;363;48.764;9.172;2024-03-17T02:12:30;4.40;;;4.00;;
757;SDS011;363;48.764;9.172;2024-03-17T02:14:57;5.03;;;4.53;;
757;SDS011;363;48.764;9.172;2024-03-17T02:17:23;8.43;;;4.70;;
757;SDS011;363;48.764;9.172;2024-03-17T02:19:50;4.78;;;4.20;;
757;SDS011;363;48.764;9.172;2024-03-17T02:22:17;5.43;;;4.90;;
757;SDS011;363;48.764;9.172;2024-03-17T02:24:43;5.80;;;4.50;;
757;SDS011;363;48.764;9.172;2024-03-17T02:27:09;5.22;;;4.60;;
757;SDS011;363;48.764;9.172;2024-03-17T02:29:35;5.20;;;4.30;;
757;SDS011;363;48.764;9.172;2024-03-17T02:32:04;4.95;;;4.28;;
757;SDS011;363;48.764;9.172;2024-03-17T02:34:35;5.28;;;4.35;;
757;SDS011;363;48.764;9.172;2024-03-17T02:37:02;5.93;;;4.53;;
757;SDS011;363;48.764;9.172;2024-03-17T02:39:30;5.80;;;4.60;;
757;SDS011;363;48.764;9.172;2024-03-17T02:42:06;6.05;;;5.05;;
757;SDS011;363;48.764;9.172;2024-03-17T02:44:34;5.20;;;4.70;;
757;SDS011;363;48.764;9.172;2024-03-17T02:47:02;5.60;;;5.10;;
757;SDS011;363;48.764;9.172;2024-03-17T02:49:35;7.80;;;5.03;;
757;SDS011;363;48.764;9.172;2024-03-17T02:52:14;5.03;;;4.32;;
757;SDS011;363;48.764;9.172;2024-03-17T02:54:40;5.17;;;3.60;;
757;SDS011;363;48.764;9.172;2024-03-17T02:57:06;4.93;;;4.18;;
757;SDS011;363;48.764;9.172;2024-03-17T02:59:32;5.70;;;4.73;;
757;SDS011;363;48.764;9.172;2024-03-17T03:01:58;4.68;;;4.22;;
757;SDS011;363;48.764;9.172;2024-03-17T03:04:25;4.75;;;4.30;;
757;SDS011;363;48.764;9.172;2024-03-17T03:06:51;5.72;;;5.07;;
757;SDS011;363;48.764;9.172;2024-03-17T03:09:17;5.97;;;4.33;;
757;SDS011;363;48.764;9.172;2024-03-17T03:11:50;7.32;;;5.45;;
757;SDS011;363;48.764;9.172;2024-03-17T03:14:16;7.28;;;5.40;;
757;SDS011;363;48.764;9.172;2024-03-17T03:16:42;6.37;;;4.70;;
757;SDS011;363;48.764;9.172;2024-03-17T03:19:08;9.38;;;4.93;;
757;SDS011;363;48.764;9.172;2024-03-17T03:21:34;4.90;;;4.40;;
757;SDS011;363;48.764;9.172;2024-03-17T03:24:00;8.90;;;5.43;;
757;SDS011;363;48.764;9.172;2024-03-17T03:26:25;7.33;;;4.87;;
757;SDS011;363;48.764;9.172;2024-03-17T03:28:51;5.90;;;5.23;;
757;SDS011;363;48.764;9.172;2024-03-17T03:31:16;6.90;;;5.40;;
757;SDS011;363;48.764;9.172;2024-03-17T03:33:42;8.35;;;4.45;;
757;SDS011;363;48.764;9.172;2024-03-17T03:36:12;6.22;;;5.00;;
757;SDS011;363;48.764;9.172;2024-03-17T03:38:39;6.47;;;5.80;;
757;SDS011;363;48.764;9.172;2024-03-17T03:41:08;7.20;;;5.20;;
757;SDS011;363;48.764;9.172;2024-03-17T03:43:34;5.30;;;4.80;;
757;SDS011;363;48.764;9.172;2024-03-17T03:46:00;5.70;;;4.87;;
757;SDS011;363;48.764;9.172;2024-03-17T03:48:27;6.32;;;5.30;;
757;SDS011;363;48.764;9.172;2024-03-17T03:50:52;6.73;;;5.23;;
757;SDS011;363;48.764;9.172;2024-03-17T03:53:19;6.70;;;5.45;;
757;SDS011;363;48.764;9.172;2024-03-17T03:55:45;6.43;;;5.23;;
757;SDS011;363;48.764;9.172;2024-03-17T03:58:10;5.67;;;5.17;;
757;SDS011;363;48.764;9.172;2024-03-17T04:00:37;7.60;;;5.15;;
757;SDS011;363;48.764;9.172;2024-03-17T04:03:04;6.25;;;5.57;;
757;SDS011;363;48.764;9.172;2024-03-17T04:05:30;6.47;;;5.37;;
757;SDS011;363;48.764;9.172;2024-03-17T04:07:55;5.77;;;5.13;;
757;SDS011;363;48.764;9.172;2024-03-17T04:10:21;7.03;;;5.57;;
757;SDS011;363;48.764;9.172;2024-03-17T04:12:49;9.68;;;6.28;;
757;SDS011;363;48.764;9.172;2024-03-17T04:15:14;7.13;;;5.77;;
757;SDS011;363;48.764;9.172;2024-03-17T04:17:40;6.80;;;5.60;;
757;SDS011;363;48.764;9.172;2024-03-17T04:20:07;7.43;;;5.35;;
757;SDS011;363;48.764;9.172;2024-03-17T04:22:34;6.15;;;5.45;;
757;SDS011;363;48.764;9.172;2024-03-17T04:25:00;8.60;;;6.27;;
757;SDS011;363;48.764;9.172;2024-03-17T04:27:26;6.43;;;5.73;;
757;SDS011;363;48.764;9.172;2024-03-17T04:29:52;9.30;;;6.38;;
757;SDS011;363;48.764;9.172;2024-03-17T04:32:19;8.50;;;6.05;;
757;SDS011;363;48.764;9.172;2024-03-17T04:34:45;7.15;;;6.13;;
757;SDS011;363;48.764;9.172;2024-03-17T04:37:11;8.10;;;6.80;;
757;SDS011;363;48.764;9.172;2024-03-17T04:39:38;6.87;;;6.07;;
757;SDS011;363;48.764;9.172;2024-03-17T04:42:10;9.95;;;7.28;;
757;SDS011;363;48.764;9.172;2024-03-17T04:44:40;7.63;;;5.75;;
757;SDS011;363;48.764;9.172;2024-03-17T04:47:06;5.70;;;5.20;;
757;SDS011;363;48.764;9.172;2024-03-17T04:49:42;8.00;;;6.60;;
757;SDS011;363;48.764;9.172;2024-03-17T04:52:08;8.23;;;5.90;;
757;SDS011;363;48.764;9.172;2024-03-17T04:54:35;9.63;;;6.82;;
757;SDS011;363;48.764;9.172;2024-03-17T04:57:00;7.47;;;5.87;;
757;SDS011;363;48.764;9.172;2024-03-17T04:59:26;6.30;;;5.70;;
757;SDS011;363;48.764;9.172;2024-03-17T05:01:52;8.65;;;6.90;;
757;SDS011;363;48.764;9.172;2024-03-17T05:04:18;8.63;;;6.70;;
757;SDS011;363;48.764;9.172;2024-03-17T05:06:44;9.30;;;6.63;;
757;SDS011;363;48.764;9.172;2024-03-17T05:09:13;7.85;;;6.35;;
757;SDS011;363;48.764;9.172;2024-03-17T05:11:39;8.90;;;6.97;;
757;SDS011;363;48.764;9.172;2024-03-17T05:14:05;6.82;;;6.05;;
757;SDS011;363;48.764;9.172;2024-03-17T05:16:31;10.20;;;5.60;;
757;SDS011;363;48.764;9.172;2024-03-17T05:18:56;8.00;;;6.30;;
757;SDS011;363;48.764;9.172;2024-03-17T05:21:22;8.83;;;6.20;;
757;SDS011;363;48.764;9.172;2024-03-17T05:23:49;8.80;;;6.07;;
757;SDS011;363;48.764;9.172;2024-03-17T05:26:15;8.83;;;6.00;;
757;SDS011;363;48.764;9.172;2024-03-17T05:28:40;6.40;;;5.70;;
757;SDS011;363;48.764;9.172;2024-03-17T05:31:06;6.60;;;5.93;;
757;SDS011;363;48.764;9.172;2024-03-17T05:33:31;7.43;;;6.60;;
757;SDS011;363;48.764;9.172;2024-03-17T05:35:57;7.57;;;6.20;;
757;SDS011;363;48.764;9.172;2024-03-17T05:38:24;7.03;;;6.32;;
757;SDS011;363;48.764;9.172;2024-03-17T05:40:54;7.47;;;5.63;;
757;SDS011;363;48.764;9.172;2024-03-17T05:43:21;8.48;;;6.90;;
757;SDS011;363;48.764;9.172;2024-03-17T05:45:51;13.48;;;7.00;;
757;SDS011;363;48.764;9.172;2024-03-17T05:48:23;7.88;;;7.03;;
757;SDS011;363;48.764;9.172;2024-03-17T05:50:49;11.40;;;7.43;;
757;SDS011;363;48.764;9.172;2024-03-17T05:53:18;8.32;;;7.43;;
757;SDS011;363;48.764;9.172;2024-03-17T05:55:44;12.15;;;7.38;;
757;SDS011;363;48.764;9.172;2024-03-17T05:58:10;7.63;;;6.83;;
757;SDS011;363;48.764;9.172;2024-03-17T06:00:36;9.18;;;7.53;;
757;SDS011;363;48.764;9.172;2024-03-17T06:03:03;8.02;;;7.15;;
757;SDS011;363;48.764;9.172;2024-03-17T06:05:34;10.88;;;7.70;;
757;SDS011;363;48.764;9.172;2024-03-17T06:08:04;10.50;;;8.18;;
757;SDS011;363;48.764;9.172;2024-03-17T06:10:31;8.23;;;7.35;;
757;SDS011;363;48.764;9.172;2024-03-17T06:12:58;8.43;;;7.60;;
757;SDS011;363;48.764;9.172;2024-03-17T06:15:24;9.13;;;7.60;;
757;SDS011;363;48.764;9.172;2024-03-17T06:17:50;8.90;;;7.23;;
757;SDS011;363;48.764;9.172;2024-03-17T06:20:23;8.02;;;7.20;;
757;SDS011;363;48.764;9.172;2024-03-17T06:22:51;9.65;;;7.65;;
757;SDS011;363;48.764;9.172;2024-03-17T06:25:20;10.35;;;7.55;;
757;SDS011;363;48.764;9.172;2024-03-17T06:27:49;11.00;;;8.40;;
757;SDS011;363;48.764;9.172;2024-03-17T06:30:18;9.48;;;7.60;;
757;SDS011;363;48.764;9.172;2024-03-17T06:32:44;10.00;;;7.70;;
757;SDS011;363;48.764;9.172;2024-03-17T06:35:11;11.30;;;8.38;;
757;SDS011;363;48.764;9.172;2024-03-17T06:37:37;10.52;;;9.02;;
757;SDS011;363;48.764;9.172;2024-03-17T06:40:03;9.30;;;8.30;;
757;SDS011;363;48.764;9.172;2024-03-17T06:42:30;9.98;;;8.63;;
757;SDS011;363;48.764;9.172;2024-03-17T06:44:56;9.53;;;8.43;;
757;SDS011;363;48.764;9.172;2024-03-17T06:47:21;13.20;;;8.90;;
757;SDS011;363;48.764;9.172;2024-03-17T06:49:47;11.65;;;8.00;;
757;SDS011;363;48.764;9.172;2024-03-17T06:52:13;12.20;;;9.00;;
757;SDS011;363;48.764;9.172;2024-03-17T06:54:38;10.17;;;8.40;;
757;SDS011;363;48.764;9.172;2024-03-17T06:57:04;13.37;;;10.27;;
757;SDS011;363;48.764;9.172;2024-03-17T06:59:32;10.47;;;8.90;;
757;SDS011;363;48.764;9.172;2024-03-17T07:01:58;10.40;;;9.02;;
757;SDS011;363;48.764;9.172;2024-03-17T07:04:24;11.03;;;8.63;;
757;SDS011;363;48.764;9.172;2024-03-17T07:06:49;10.00;;;9.07;;
757;SDS011;363;48.764;9.172;2024-03-17T07:09:15;11.00;;;9.90;;
757;SDS011;363;48.764;9.172;2024-03-17T07:11:42;11.57;;;10.13;;
757;SDS011;363;48.764;9.172;2024-03-17T07:14:09;10.27;;;9.27;;
757;SDS011;363;48.764;9.172;2024-03-17T07:16:34;10.77;;;9.63;;
757;SDS011;363;48.764;9.172;2024-03-17T07:19:01;10.63;;;9.50;;
757;SDS011;363;48.764;9.172;2024-03-17T07:21:27;13.73;;;9.40;;
757;SDS011;363;48.764;9.172;2024-03-17T07:23:52;10.27;;;9.27;;
757;SDS011;363;48.764;9.172;2024-03-17T07:26:18;10.50;;;9.60;;
757;SDS011;363;48.764;9.172;2024-03-17T07:28:44;10.53;;;9.47;;
757;SDS011;363;48.764;9.172;2024-03-17T07:31:09;11.63;;;10.43;;
757;SDS011;363;48.764;9.172;2024-03-17T07:33:35;10.40;;;9.33;;
757;SDS011;363;48.764;9.172;2024-03-17T07:36:01;10.70;;;9.70;;
757;SDS011;363;48.764;9.172;2024-03-17T07:38:28;12.20;;;10.50;;
757;SDS011;363;48.764;9.172;2024-03-17T07:40:59;8.98;;;8.07;;
757;SDS011;363;48.764;9.172;2024-03-17T07:43:26;10.18;;;9.07;;
757;SDS011;363;48.764;9.172;2024-03-17T07:46:05;11.43;;;10.32;;
757;SDS011;363;48.764;9.172;2024-03-17T07:48:38;10.45;;;9.30;;
757;SDS011;363;48.764;9.172;2024-03-17T07:51:09;9.75;;;8.85;;
757;SDS011;363;48.764;9.172;2024-03-17T07:53:36;13.68;;;12.25;;
757;SDS011;363;48.764;9.172;2024-03-17T07:56:04;11.00;;;10.00;;
757;SDS011;363;48.764;9.172;2024-03-17T07:58:34;10.60;;;9.57;;
757;SDS011;363;48.764;9.172;2024-03-17T08:01:03;10.95;;;9.95;;
757;SDS011;363;48.764;9.172;2024-03-17T08:03:30;10.40;;;9.05;;
757;SDS011;363;48.764;9.172;2024-03-17T08:05:57;11.52;;;10.35;;
757;SDS011;363;48.764;9.172;2024-03-17T08:08:23;11.40;;;10.25;;
757;SDS011;363;48.764;9.172;2024-03-17T08:10:49;11.05;;;10.05;;
757;SDS011;363;48.764;9.172;2024-03-17T08:13:19;10.15;;;9.15;;
757;SDS011;363;48.764;9.172;2024-03-17T08:15:45;10.05;;;9.15;;
757;SDS011;363;48.764;9.172;2024-03-17T08:18:12;9.68;;;8.85;;
757;SDS011;363;48.764;9.172;2024-03-17T08:20:38;10.10;;;9.10;;
757;SDS011;363;48.764;9.172;2024-03-17T08:23:04;10.70;;;9.70;;
757;SDS011;363;48.764;9.172;2024-03-17T08:25:31;10.70;;;9.70;;
757;SDS011;363;48.764;9.172;2024-03-17T08:27:57;11.32;;;10.32;;
757;SDS011;363;48.764;9.172;2024-03-17T08:30:22;11.20;;;10.00;;
757;SDS011;363;48.764;9.172;2024-03-17T08:32:48;10.57;;;9.57;;
757;SDS011;363;48.764;9.172;2024-03-17T08:35:13;11.03;;;10.03;;
757;SDS011;363;48.764;9.172;2024-03-17T08:37:39;10.63;;;9.60;;
757;SDS011;363;48.764;9.172;2024-03-17T08:40:05;11.63;;;10.53;;
757;SDS011;363;48.764;9.172;2024-03-17T08:42:31;9.90;;;8.90;;
757;SDS011;363;48.764;9.172;2024-03-17T08:44:57;11.98;;;10.85;;
757;SDS011;363;48.764;9.172;2024-03-17T08:47:23;11.60;;;10.60;;
757;SDS011;363;48.764;9.172;2024-03-17T08:49:51;10.83;;;9.83;;
757;SDS011;363;48.764;9.172;2024-03-17T08:52:17;10.20;;;9.20;;
757;SDS011;363;48.764;9.172;2024-03-17T08:54:45;10.53;;;9.53;;
757;SDS011;363;48.764;9.172;2024-03-17T08:57:12;10.13;;;9.25;;
757;SDS011;363;48.764;9.172;2024-03-17T08:59:37;9.53;;;8.63;;
757;SDS011;363;48.764;9.172;2024-03-17T09:02:03;11.00;;;9.67;;
757;SDS011;363;48.764;9.172;2024-03-17T09:04:29;9.70;;;8.80;;
757;SDS011;363;48.764;9.172;2024-03-17T09:06:55;10.45;;;9.45;;
757;SDS011;363;48.764;9.172;2024-03-17T09:09:22;9.70;;;8.90;;
757;SDS011;363;48.764;9.172;2024-03-17T09:11:47;9.40;;;8.45;;
757;SDS011;363;48.764;9.172;2024-03-17T09:14:13;8.60;;;7.80;;
757;SDS011;363;48.764;9.172;2024-03-17T09:16:38;8.47;;;7.77;;
757;SDS011;363;48.764;9.172;2024-03-17T09:19:04;8.80;;;7.90;;
757;SDS011;363;48.764;9.172;2024-03-17T09:21:29;7.50;;;6.80;;
757;SDS011;363;48.764;9.172;2024-03-17T09:23:55;8.20;;;7.40;;
757;SDS011;363;48.764;9.172;2024-03-17T09:26:20;7.73;;;6.93;;
757;SDS011;363;48.764;9.172;2024-03-17T09:28:46;8.83;;;7.23;;
757;SDS011;363;48.764;9.172;2024-03-17T09:31:11;8.77;;;7.97;;
757;SDS011;363;48.764;9.172;2024-03-17T09:33:37;7.47;;;6.77;;
757;SDS011;363;48.764;9.172;2024-03-17T09:36:06;7.50;;;6.80;;
757;SDS011;363;48.764;9.172;2024-03-17T09:38:33;7.20;;;6.60;;
757;SDS011;363;48.764;9.172;2024-03-17T09:41:00;6.53;;;6.03;;
757;SDS011;363;48.764;9.172;2024-03-17T09:43:26;6.68;;;6.03;;
757;SDS011;363;48.764;9.172;2024-03-17T09:46:01;6.90;;;6.28;;
757;SDS011;363;48.764;9.172;2024-03-17T09:48:28;5.95;;;5.35;;
757;SDS011;363;48.764;9.172;2024-03-17T09:50:54;7.05;;;6.45;;
757;SDS011;363;48.764;9.172;2024-03-17T09:53:25;6.63;;;6.03;;
757;SDS011;363;48.764;9.172;2024-03-17T09:55:52;6.97;;;6.32;;
757;SDS011;363;48.764;9.172;2024-03-17T09:58:22;5.97;;;5.38;;
757;SDS011;363;48.764;9.172;2024-03-17T10:00:48;6.57;;;5.40;;
757;SDS011;363;48.764;9.172;2024-03-17T10:06:10;6.60;;;5.70;;
757;SDS011;363;48.764;9.172;2024-03-17T10:08:46;5.38;;;4.82;;
757;SDS011;363;48.764;9.172;2024-03-17T10:11:12;5.85;;;5.35;;
757;SDS011;363;48.764;9.172;2024-03-17T10:13:38;6.13;;;4.97;;
757;SDS011;363;48.764;9.172;2024-03-17T10:16:05;5.75;;;5.15;;
757;SDS011;363;48.764;9.172;2024-03-17T10:18:30;5.70;;;4.30;;
757;SDS011;363;48.764;9.172;2024-03-17T10:20:56;5.50;;;4.73;;
757;SDS011;363;48.764;9.172;2024-03-17T10:23:23;4.93;;;4.40;;
757;SDS011;363;48.764;9.172;2024-03-17T10:25:49;4.60;;;4.20;;
757;SDS011;363;48.764;9.172;2024-03-17T10:28:16;4.47;;;4.17;;
757;SDS011;363;48.764;9.172;2024-03-17T10:31:00;4.10;;;3.70;;
757;SDS011;363;48.764;9.172;2024-03-17T10:33:26;4.50;;;4.03;;
757;SDS011;363;48.764;9.172;2024-03-17T10:35:59;4.22;;;3.70;;
757;SDS011;363;48.764;9.172;2024-03-17T10:38:26;3.78;;;3.35;;
757;SDS011;363;48.764;9.172;2024-03-17T10:40:56;3.80;;;3.50;;
757;SDS011;363;48.764;9.172;2024-03-17T10:43:22;3.60;;;3.30;;
757;SDS011;363;48.764;9.172;2024-03-17T10:45:51;4.45;;;4.15;;
757;SDS011;363;48.764;9.172;2024-03-17T10:48:19;3.30;;;3.00;;
757;SDS011;363;48.764;9.172;2024-03-17T10:50:46;3.70;;;3.40;;
757;SDS011;363;48.764;9.172;2024-03-17T10:53:14;3.20;;;3.00;;
757;SDS011;363;48.764;9.172;2024-03-17T10:55:45;3.50;;;3.20;;
757;SDS011;363;48.764;9.172;2024-03-17T11:01:17;6.00;;;3.60;;
757;SDS011;363;48.764;9.172;2024-03-17T11:03:45;4.07;;;3.50;;
757;SDS011;363;48.764;9.172;2024-03-17T11:06:12;3.67;;;3.30;;
757;SDS011;363;48.764;9.172;2024-03-17T11:08:38;4.70;;;3.80;;
757;SDS011;363;48.764;9.172;2024-03-17T11:11:07;4.15;;;3.83;;
757;SDS011;363;48.764;9.172;2024-03-17T11:13:34;5.10;;;4.60;;
757;SDS011;363;48.764;9.172;2024-03-17T11:16:01;4.68;;;4.28;;
757;SDS011;363;48.764;9.172;2024-03-17T11:18:33;4.68;;;4.28;;
757;SDS011;363;48.764;9.172;2024-03-17T11:23:35;4.25;;;3.83;;
757;SDS011;363;48.764;9.172;2024-03-17T11:26:02;3.55;;;3.08;;
757;SDS011;363;48.764;9.172;2024-03-17T11:34:00;3.58;;;3.25;;
757;SDS011;363;48.764;9.172;2024-03-17T11:38:54;3.30;;;2.63;;
757;SDS011;363;48.764;9.172;2024-03-17T11:47:03;2.70;;;2.22;;
757;SDS011;363;48.764;9.172;2024-03-17T11:51:57;2.55;;;2.30;;
757;SDS011;363;48.764;9.172;2024-03-17T11:54:25;2.90;;;2.60;;
757;SDS011;363;48.764;9.172;2024-03-17T11:56:55;4.25;;;3.90;;
757;SDS011;363;48.764;9.172;2024-03-17T11:59:25;4.10;;;3.75;;
757;SDS011;363;48.764;9.172;2024-03-17T12:01:50;3.67;;;3.37;;
757;SDS011;363;48.764;9.172;2024-03-17T12:04:17;4.20;;;3.80;;
757;SDS011;363;48.764;9.172;2024-03-17T12:06:49;4.68;;;3.70;;
757;SDS011;363;48.764;9.172;2024-03-17T12:09:20;4.00;;;3.60;;
757;SDS011;363;48.764;9.172;2024-03-17T12:11:48;4.70;;;4.30;;
757;SDS011;363;48.764;9.172;2024-03-17T12:14:15;4.82;;;4.43;;
757;SDS011;363;48.764;9.172;2024-03-17T12:16:51;5.30;;;3.95;;
757;SDS011;363;48.764;9.172;2024-03-17T12:19:18;5.40;;;4.90;;
757;SDS011;363;48.764;9.172;2024-03-17T12:21:44;4.80;;;4.40;;
757;SDS011;363;48.764;9.172;2024-03-17T12:24:16;5.28;;;4.10;;
757;SDS011;363;48.764;9.172;2024-03-17T12:26:43;4.65;;;4.25;;
757;SDS011;363;48.764;9.172;2024-03-17T12:29:26;4.78;;;4.05;;
757;SDS011;363;48.764;9.172;2024-03-17T12:32:01;4.10;;;3.80;;
757;SDS011;363;48.764;9.172;2024-03-17T12:34:29;5.20;;;4.70;;
757;SDS011;363;48.764;9.172;2024-03-17T12:36:56;5.90;;;4.63;;
757;SDS011;363;48.764;9.172;2024-03-17T12:39:24;4.80;;;4.40;;
757;SDS011;363;48.764;9.172;2024-03-17T12:42:01;4.38;;;3.85;;
757;SDS011;363;48.764;9.172;2024-03-17T12:44:30;4.82;;;4.13;;
757;SDS011;363;48.764;9.172;2024-03-17T12:46:57;4.78;;;4.38;;
757;SDS011;363;48.764;9.172;2024-03-17T12:49:27;4.30;;;3.90;;
757;SDS011;363;48.764;9.172;2024-03-17T12:51:53;4.90;;;3.90;;
757;SDS011;363;48.764;9.172;2024-03-17T12:54:20;4.95;;;4.38;;
757;SDS011;363;48.764;9.172;2024-03-17T12:56:51;4.20;;;3.80;;
757;SDS011;363;48.764;9.172;2024-03-17T12:59:46;5.60;;;5.10;;
757;SDS011;363;48.764;9.172;2024-03-17T13:02:30;5.20;;;4.70;;
757;SDS011;363;48.764;9.172;2024-03-17T13:05:06;4.90;;;4.00;;
757;SDS011;363;48.764;9.172;2024-03-17T13:07:35;6.22;;;4.32;;
757;SDS011;363;48.764;9.172;2024-03-17T13:10:01;4.47;;;4.07;;
757;SDS011;363;48.764;9.172;2024-03-17T13:12:27;4.15;;;3.75;;
757;SDS011;363;48.764;9.172;2024-03-17T13:14:53;6.03;;;3.87;;
757;SDS011;363;48.764;9.172;2024-03-17T13:17:19;4.00;;;3.70;;
757;SDS011;363;48.764;9.172;2024-03-17T13:19:45;4.60;;;4.20;;
757;SDS011;363;48.764;9.172;2024-03-17T13:22:11;4.90;;;4.43;;
757;SDS011;363;48.764;9.172;2024-03-17T13:24:38;4.43;;;4.00;;
757;SDS011;363;48.764;9.172;2024-03-17T13:27:04;4.17;;;3.77;;
757;SDS011;363;48.764;9.172;2024-03-17T13:29:31;4.82;;;4.30;;
757;SDS011;363;48.764;9.172;2024-03-17T13:32:03;4.90;;;3.88;;
757;SDS011;363;48.764;9.172;2024-03-17T13:34:30;4.80;;;4.20;;
757;SDS011;363;48.764;9.172;2024-03-17T13:36:56;3.97;;;3.67;;
757;SDS011;363;48.764;9.172;2024-03-17T13:39:22;4.00;;;3.70;;
757;SDS011;363;48.764;9.172;2024-03-17T13:41:49;4.65;;;4.00;;
757;SDS011;363;48.764;9.172;2024-03-17T13:44:17;4.70;;;3.83;;
757;SDS011;363;48.764;9.172;2024-03-17T13:46:43;3.85;;;3.55;;
757;SDS011;363;48.764;9.172;2024-03-17T13:49:09;3.90;;;3.43;;
757;SDS011;363;48.764;9.172;2024-03-17T13:51:35;4.15;;;3.47;;
757;SDS011;363;48.764;9.172;2024-03-17T13:54:01;3.80;;;3.40;;
757;SDS011;363;48.764;9.172;2024-03-17T13:56:27;7.13;;;6.38;;
757;SDS011;363;48.764;9.172;2024-03-17T13:59:05;3.83;;;3.43;;
757;SDS011;363;48.764;9.172;2024-03-17T14:01:31;3.47;;;3.17;;
757;SDS011;363;48.764;9.172;2024-03-17T14:03:58;3.75;;;3.20;;
757;SDS011;363;48.764;9.172;2024-03-17T14:14:52;3.40;;;3.10;;
757;SDS011;363;48.764;9.172;2024-03-17T14:17:18;3.20;;;3.00;;
757;SDS011;363;48.764;9.172;2024-03-17T14:23:06;2.88;;;2.55;;
757;SDS011;363;48.764;9.172;2024-03-17T14:25:31;3.30;;;2.43;;
757;SDS011;363;48.764;9.172;2024-03-17T14:27:57;3.20;;;2.90;;
757;SDS011;363;48.764;9.172;2024-03-17T14:30:22;4.07;;;3.70;;
757;SDS011;363;48.764;9.172;2024-03-17T14:32:48;3.10;;;2.90;;
757;SDS011;363;48.764;9.172;2024-03-17T14:35:15;2.80;;;2.60;;
757;SDS011;363;48.764;9.172;2024-03-17T14:37:42;3.55;;;3.25;;
757;SDS011;363;48.764;9.172;2024-03-17T14:40:12;5.18;;;3.90;;
757;SDS011;363;48.764;9.172;2024-03-17T14:42:48;3.90;;;3.40;;
757;SDS011;363;48.764;9.172;2024-03-17T14:45:15;3.00;;;2.80;;
757;SDS011;363;48.764;9.172;2024-03-17T14:47:41;3.58;;;3.03;;
757;SDS011;363;48.764;9.172;2024-03-17T14:50:07;3.40;;;3.10;;
757;SDS011;363;48.764;9.172;2024-03-17T14:52:38;3.45;;;3.20;;
757;SDS011;363;48.764;9.172;2024-03-17T14:55:05;3.88;;;3.50;;
757;SDS011;363;48.764;9.172;2024-03-17T14:57:34;3.30;;;2.88;;
757;SDS011;363;48.764;9.172;2024-03-17T15:00:02;2.90;;;2.70;;
757;SDS011;363;48.764;9.172;2024-03-17T15:02:28;3.25;;;2.60;;
757;SDS011;363;48.764;9.172;2024-03-17T15:04:54;4.03;;;2.87;;
757;SDS011;363;48.764;9.172;2024-03-17T15:07:19;2.93;;;2.70;;
757;SDS011;363;48.764;9.172;2024-03-17T15:09:45;4.00;;;3.20;;
757;SDS011;363;48.764;9.172;2024-03-17T15:12:12;3.08;;;2.80;;
757;SDS011;363;48.764;9.172;2024-03-17T15:14:38;3.50;;;3.20;;
757;SDS011;363;48.764;9.172;2024-03-17T15:17:03;6.30;;;2.57;;
757;SDS011;363;48.764;9.172;2024-03-17T15:19:30;3.58;;;3.28;;
757;SDS011;363;48.764;9.172;2024-03-17T15:21:57;2.92;;;2.72;;
757;SDS011;363;48.764;9.172;2024-03-17T15:24:22;3.80;;;3.10;;
757;SDS011;363;48.764;9.172;2024-03-17T15:26:48;4.93;;;3.20;;
757;SDS011;363;48.764;9.172;2024-03-17T15:29:15;3.15;;;2.85;;
757;SDS011;363;48.764;9.172;2024-03-17T15:31:40;3.90;;;3.03;;
757;SDS011;363;48.764;9.172;2024-03-17T15:34:06;3.20;;;2.90;;
757;SDS011;363;48.764;9.172;2024-03-17T15:36:32;2.73;;;2.50;;
757;SDS011;363;48.764;9.172;2024-03-17T15:38:57;3.30;;;3.00;;
757;SDS011;363;48.764;9.172;2024-03-17T15:41:23;3.77;;;3.43;;
757;SDS011;363;48.764;9.172;2024-03-17T15:43:48;3.77;;;3.37;;
757;SDS011;363;48.764;9.172;2024-03-17T15:46:16;4.03;;;3.72;;
757;SDS011;363;48.764;9.172;2024-03-17T15:48:43;3.70;;;3.35;;
757;SDS011;363;48.764;9.172;2024-03-17T15:51:10;4.05;;;3.65;;
757;SDS011;363;48.764;9.172;2024-03-17T15:53:36;5.40;;;3.90;;
757;SDS011;363;48.764;9.172;2024-03-17T15:56:02;4.80;;;4.22;;
757;SDS011;363;48.764;9.172;2024-03-17T15:58:29;3.70;;;3.30;;
757;SDS011;363;48.764;9.172;2024-03-17T16:00:55;5.05;;;4.28;;
757;SDS011;363;48.764;9.172;2024-03-17T16:03:22;4.30;;;3.90;;
757;SDS011;363;48.764;9.172;2024-03-17T16:05:53;4.63;;;3.45;;
757;SDS011;363;48.764;9.172;2024-03-17T16:08:21;3.70;;;3.40;;
757;SDS011;363;48.764;9.172;2024-03-17T16:10:51;4.22;;;3.90;;
757;SDS011;363;48.764;9.172;2024-03-17T16:13:19;4.40;;;4.00;;
757;SDS011;363;48.764;9.172;2024-03-17T16:15:46;3.70;;;3.40;;
757;SDS011;363;48.764;9.172;2024-03-17T16:18:16;4.68;;;4.18;;
757;SDS011;363;48.764;9.172;2024-03-17T16:23:14;3.70;;;3.40;;